sensor_id;sensor_type;location;lat;lon;timestamp;pressure;altitude;pressure_sealevel;temperature;humidity
41062;BME280;26812;42.662;23.352;2023-05-11T00:00:06;95097.28;;;9.92;67.86
41062;BME280;26812;42.662;23.352;2023-05-11T00:02:32;95117.06;;;10.10;67.60
41062;BME280;26812;42.662;23.352;2023-05-11T00:04:57;95067.91;;;9.51;68.16
41062;BME280;26812;42.662;23.352;2023-05-11T00:07:23;95069.84;;;9.82;67.58
41062;BME280;26812;42.662;23.352;2023-05-11T00:09:49;95075.97;;;9.74;67.74
41062;BME280;26812;42.662;23.352;2023-05-11T00:12:15;95082.56;;;9.90;67.33
41062;BME280;26812;42.662;23.352;2023-05-11T00:14:40;95124.44;;;10.27;67.46
41062;BME280;26812;42.662;23.352;2023-05-11T00:17:05;95116.22;;;10.32;67.06
41062;BME280;26812;42.662;23.352;2023-05-11T00:19:31;95132.22;;;10.68;65.77
41062;BME280;26812;42.662;23.352;2023-05-11T00:21:57;95096.22;;;10.24;66.20
41062;BME280;26812;42.662;23.352;2023-05-11T00:24:24;95139.19;;;10.30;66.70
41062;BME280;26812;42.662;23.352;2023-05-11T00:26:49;95136.94;;;10.23;67.33
41062;BME280;26812;42.662;23.352;2023-05-11T00:29:15;95138.06;;;10.08;68.25
41062;BME280;26812;42.662;23.352;2023-05-11T00:31:40;95136.19;;;10.31;67.78
41062;BME280;26812;42.662;23.352;2023-05-11T00:34:06;95125.69;;;10.21;67.70
41062;BME280;26812;42.662;23.352;2023-05-11T00:36:31;95138.34;;;10.20;67.30
41062;BME280;26812;42.662;23.352;2023-05-11T00:38:58;95126.94;;;10.01;68.05
41062;BME280;26812;42.662;23.352;2023-05-11T00:41:23;95136.47;;;10.07;67.93
41062;BME280;26812;42.662;23.352;2023-05-11T00:43:48;95130.13;;;10.03;68.58
41062;BME280;26812;42.662;23.352;2023-05-11T00:46:14;95121.22;;;9.94;68.27
41062;BME280;26812;42.662;23.352;2023-05-11T00:48:39;95141.28;;;10.10;68.06
41062;BME280;26812;42.662;23.352;2023-05-11T00:51:05;95128.66;;;10.19;67.99
41062;BME280;26812;42.662;23.352;2023-05-11T00:53:31;95137.25;;;10.21;67.47
41062;BME280;26812;42.662;23.352;2023-05-11T00:55:57;95126.75;;;10.20;67.55
41062;BME280;26812;42.662;23.352;2023-05-11T00:58:23;95091.25;;;9.64;67.90
41062;BME280;26812;42.662;23.352;2023-05-11T01:00:49;95113.94;;;9.94;68.14
41062;BME280;26812;42.662;23.352;2023-05-11T01:03:15;95138.59;;;10.10;68.13
41062;BME280;26812;42.662;23.352;2023-05-11T01:05:53;95136.06;;;10.14;67.84
41062;BME280;26812;42.662;23.352;2023-05-11T01:08:23;95133.56;;;10.17;67.62
41062;BME280;26812;42.662;23.352;2023-05-11T01:11:08;95146.44;;;10.20;67.70
41062;BME280;26812;42.662;23.352;2023-05-11T01:16:44;95120.94;;;10.26;66.77
41062;BME280;26812;42.662;23.352;2023-05-11T01:19:42;95133.00;;;10.07;67.53
41062;BME280;26812;42.662;23.352;2023-05-11T01:28:14;95135.75;;;10.15;67.37
41062;BME280;26812;42.662;23.352;2023-05-11T01:30:48;95139.75;;;9.95;68.14
41062;BME280;26812;42.662;23.352;2023-05-11T01:33:17;95139.53;;;10.37;66.77
41062;BME280;26812;42.662;23.352;2023-05-11T01:35:51;95112.22;;;9.99;67.15
41062;BME280;26812;42.662;23.352;2023-05-11T01:38:25;95120.31;;;10.07;67.47
41062;BME280;26812;42.662;23.352;2023-05-11T01:40:56;95128.31;;;10.12;66.92
41062;BME280;26812;42.662;23.352;2023-05-11T01:43:25;95137.66;;;9.92;68.16
41062;BME280;26812;42.662;23.352;2023-05-11T01:45:54;95140.66;;;9.69;68.05
41062;BME280;26812;42.662;23.352;2023-05-11T01:48:24;95119.63;;;9.71;68.31
41062;BME280;26812;42.662;23.352;2023-05-11T01:50:52;95136.06;;;9.91;67.62
41062;BME280;26812;42.662;23.352;2023-05-11T01:53:22;95140.84;;;9.72;68.31
41062;BME280;26812;42.662;23.352;2023-05-11T01:55:49;95140.34;;;9.70;68.17
41062;BME280;26812;42.662;23.352;2023-05-11T01:58:15;95124.88;;;9.53;68.92
41062;BME280;26812;42.662;23.352;2023-05-11T02:00:43;95139.56;;;9.70;68.62
41062;BME280;26812;42.662;23.352;2023-05-11T02:03:10;95139.22;;;9.85;67.71
41062;BME280;26812;42.662;23.352;2023-05-11T02:05:37;95129.00;;;9.37;68.37
41062;BME280;26812;42.662;23.352;2023-05-11T02:08:04;95107.00;;;9.35;68.46
41062;BME280;26812;42.662;23.352;2023-05-11T02:10:30;95139.66;;;9.42;68.56
41062;BME280;26812;42.662;23.352;2023-05-11T02:12:58;95144.38;;;9.59;68.06
41062;BME280;26812;42.662;23.352;2023-05-11T02:15:24;95138.69;;;9.60;67.90
41062;BME280;26812;42.662;23.352;2023-05-11T02:17:52;95128.16;;;9.28;68.15
41062;BME280;26812;42.662;23.352;2023-05-11T02:20:18;95132.72;;;9.27;68.24
41062;BME280;26812;42.662;23.352;2023-05-11T02:22:45;95133.53;;;9.28;68.28
41062;BME280;26812;42.662;23.352;2023-05-11T02:25:11;95124.06;;;9.17;69.13
41062;BME280;26812;42.662;23.352;2023-05-11T02:27:37;95123.25;;;9.30;68.21
41062;BME280;26812;42.662;23.352;2023-05-11T02:30:04;95114.81;;;9.23;68.37
41062;BME280;26812;42.662;23.352;2023-05-11T02:32:34;95122.09;;;9.22;68.47
41062;BME280;26812;42.662;23.352;2023-05-11T02:35:10;95122.72;;;9.42;67.61
41062;BME280;26812;42.662;23.352;2023-05-11T02:37:40;95131.06;;;9.54;66.73
41062;BME280;26812;42.662;23.352;2023-05-11T02:40:14;95119.47;;;9.31;67.53
41062;BME280;26812;42.662;23.352;2023-05-11T02:42:41;95129.78;;;9.51;67.07
41062;BME280;26812;42.662;23.352;2023-05-11T02:45:08;95122.03;;;9.36;67.42
41062;BME280;26812;42.662;23.352;2023-05-11T02:47:46;95118.41;;;9.54;66.39
41062;BME280;26812;42.662;23.352;2023-05-11T02:50:12;95139.00;;;9.59;66.29
41062;BME280;26812;42.662;23.352;2023-05-11T02:52:42;95128.09;;;9.42;67.35
41062;BME280;26812;42.662;23.352;2023-05-11T02:55:09;95120.97;;;9.59;66.70
41062;BME280;26812;42.662;23.352;2023-05-11T02:57:37;95122.97;;;9.18;67.83
41062;BME280;26812;42.662;23.352;2023-05-11T03:00:03;95119.41;;;9.09;68.55
41062;BME280;26812;42.662;23.352;2023-05-11T03:02:29;95125.22;;;9.02;68.12
41062;BME280;26812;42.662;23.352;2023-05-11T03:04:54;95106.22;;;8.85;68.70
41062;BME280;26812;42.662;23.352;2023-05-11T03:07:20;95124.03;;;8.94;68.68
41062;BME280;26812;42.662;23.352;2023-05-11T03:09:45;95065.94;;;8.71;69.48
41062;BME280;26812;42.662;23.352;2023-05-11T03:12:12;95110.78;;;8.98;68.50
41062;BME280;26812;42.662;23.352;2023-05-11T03:14:39;95131.22;;;9.35;67.91
41062;BME280;26812;42.662;23.352;2023-05-11T03:17:05;95119.50;;;9.17;68.36
41062;BME280;26812;42.662;23.352;2023-05-11T03:19:31;95114.41;;;9.16;68.00
41062;BME280;26812;42.662;23.352;2023-05-11T03:21:58;95087.03;;;8.91;68.68
41062;BME280;26812;42.662;23.352;2023-05-11T03:24:25;95108.56;;;9.14;68.21
41062;BME280;26812;42.662;23.352;2023-05-11T03:26:53;95114.34;;;9.21;68.33
41062;BME280;26812;42.662;23.352;2023-05-11T03:29:20;95122.34;;;8.98;69.04
41062;BME280;26812;42.662;23.352;2023-05-11T03:31:47;95126.38;;;9.23;68.36
41062;BME280;26812;42.662;23.352;2023-05-11T03:34:12;95137.13;;;9.10;69.23
41062;BME280;26812;42.662;23.352;2023-05-11T03:36:38;95113.13;;;9.13;67.89
41062;BME280;26812;42.662;23.352;2023-05-11T03:39:05;95092.84;;;9.07;67.44
41062;BME280;26812;42.662;23.352;2023-05-11T03:41:33;95132.84;;;9.09;67.64
41062;BME280;26812;42.662;23.352;2023-05-11T03:44:01;95126.91;;;8.98;69.04
41062;BME280;26812;42.662;23.352;2023-05-11T03:46:28;95132.66;;;9.05;68.57
41062;BME280;26812;42.662;23.352;2023-05-11T03:48:54;95135.25;;;9.10;68.00
41062;BME280;26812;42.662;23.352;2023-05-11T03:51:20;95126.44;;;8.68;69.85
41062;BME280;26812;42.662;23.352;2023-05-11T03:53:46;95131.00;;;8.82;69.49
41062;BME280;26812;42.662;23.352;2023-05-11T03:56:12;95144.06;;;8.88;70.12
41062;BME280;26812;42.662;23.352;2023-05-11T03:58:38;95131.50;;;8.84;70.09
41062;BME280;26812;42.662;23.352;2023-05-11T04:01:05;95147.00;;;9.00;69.46
41062;BME280;26812;42.662;23.352;2023-05-11T04:03:32;95143.59;;;9.09;69.22
41062;BME280;26812;42.662;23.352;2023-05-11T04:05:57;95141.97;;;8.71;70.64
41062;BME280;26812;42.662;23.352;2023-05-11T04:08:22;95153.50;;;8.72;71.12
41062;BME280;26812;42.662;23.352;2023-05-11T04:10:48;95140.56;;;8.74;71.58
41062;BME280;26812;42.662;23.352;2023-05-11T04:13:13;95151.28;;;8.47;71.92
41062;BME280;26812;42.662;23.352;2023-05-11T04:15:39;95138.78;;;8.69;71.69
41062;BME280;26812;42.662;23.352;2023-05-11T04:18:04;95136.00;;;8.61;71.41
41062;BME280;26812;42.662;23.352;2023-05-11T04:20:30;95138.38;;;8.90;70.87
41062;BME280;26812;42.662;23.352;2023-05-11T04:22:55;95140.25;;;8.76;71.72
41062;BME280;26812;42.662;23.352;2023-05-11T04:25:20;95148.50;;;8.79;71.73
41062;BME280;26812;42.662;23.352;2023-05-11T04:27:46;95163.44;;;8.99;71.35
41062;BME280;26812;42.662;23.352;2023-05-11T04:30:12;95163.84;;;8.65;72.23
41062;BME280;26812;42.662;23.352;2023-05-11T04:32:37;95146.91;;;8.78;71.58
41062;BME280;26812;42.662;23.352;2023-05-11T04:35:03;95167.03;;;8.67;73.17
41062;BME280;26812;42.662;23.352;2023-05-11T04:37:28;95125.25;;;8.47;73.13
41062;BME280;26812;42.662;23.352;2023-05-11T04:39:54;95159.06;;;8.62;72.65
41062;BME280;26812;42.662;23.352;2023-05-11T04:42:20;95170.91;;;8.75;72.82
41062;BME280;26812;42.662;23.352;2023-05-11T04:44:46;95178.66;;;8.76;73.57
41062;BME280;26812;42.662;23.352;2023-05-11T04:47:11;95157.75;;;9.00;71.89
41062;BME280;26812;42.662;23.352;2023-05-11T04:49:36;95152.72;;;8.58;73.61
41062;BME280;26812;42.662;23.352;2023-05-11T04:52:03;95170.59;;;8.76;73.47
41062;BME280;26812;42.662;23.352;2023-05-11T04:54:29;95118.97;;;8.52;72.81
41062;BME280;26812;42.662;23.352;2023-05-11T04:56:55;95174.00;;;8.95;73.04
41062;BME280;26812;42.662;23.352;2023-05-11T04:59:20;95154.09;;;8.83;72.10
41062;BME280;26812;42.662;23.352;2023-05-11T05:01:46;95145.03;;;8.92;71.82
41062;BME280;26812;42.662;23.352;2023-05-11T05:04:11;95174.88;;;9.05;71.92
41062;BME280;26812;42.662;23.352;2023-05-11T05:06:36;95162.06;;;8.88;72.38
41062;BME280;26812;42.662;23.352;2023-05-11T05:09:02;95175.25;;;9.12;72.56
41062;BME280;26812;42.662;23.352;2023-05-11T05:11:28;95168.28;;;9.11;71.46
41062;BME280;26812;42.662;23.352;2023-05-11T05:13:53;95174.34;;;9.16;72.03
41062;BME280;26812;42.662;23.352;2023-05-11T05:16:19;95183.44;;;9.20;71.87
41062;BME280;26812;42.662;23.352;2023-05-11T05:18:44;95175.50;;;8.60;73.84
41062;BME280;26812;42.662;23.352;2023-05-11T05:21:10;95191.03;;;8.91;73.23
41062;BME280;26812;42.662;23.352;2023-05-11T05:23:35;95196.16;;;9.15;73.08
41062;BME280;26812;42.662;23.352;2023-05-11T05:26:01;95187.28;;;9.28;72.15
41062;BME280;26812;42.662;23.352;2023-05-11T05:28:26;95188.41;;;9.27;72.02
41062;BME280;26812;42.662;23.352;2023-05-11T05:30:51;95184.50;;;9.33;72.20
41062;BME280;26812;42.662;23.352;2023-05-11T05:33:17;95186.75;;;9.40;71.12
41062;BME280;26812;42.662;23.352;2023-05-11T05:35:42;95184.00;;;9.31;71.33
41062;BME280;26812;42.662;23.352;2023-05-11T05:38:10;95197.06;;;9.24;72.07
41062;BME280;26812;42.662;23.352;2023-05-11T05:40:36;95199.38;;;9.03;73.60
41062;BME280;26812;42.662;23.352;2023-05-11T05:43:03;95202.94;;;8.85;74.39
41062;BME280;26812;42.662;23.352;2023-05-11T05:45:29;95196.97;;;9.01;74.17
41062;BME280;26812;42.662;23.352;2023-05-11T05:47:54;95175.75;;;8.86;73.44
41062;BME280;26812;42.662;23.352;2023-05-11T05:50:20;95195.59;;;8.90;73.44
41062;BME280;26812;42.662;23.352;2023-05-11T05:52:46;95182.94;;;8.77;73.88
41062;BME280;26812;42.662;23.352;2023-05-11T05:55:11;95199.78;;;8.96;72.79
41062;BME280;26812;42.662;23.352;2023-05-11T05:57:36;95189.72;;;9.02;72.61
41062;BME280;26812;42.662;23.352;2023-05-11T06:00:02;95215.09;;;8.96;73.80
41062;BME280;26812;42.662;23.352;2023-05-11T06:02:28;95179.75;;;8.61;73.10
41062;BME280;26812;42.662;23.352;2023-05-11T06:04:53;95216.28;;;9.03;72.94
41062;BME280;26812;42.662;23.352;2023-05-11T06:07:18;95183.84;;;8.59;73.54
41062;BME280;26812;42.662;23.352;2023-05-11T06:09:44;95219.34;;;8.83;73.04
41062;BME280;26812;42.662;23.352;2023-05-11T06:12:09;95201.44;;;9.06;72.21
41062;BME280;26812;42.662;23.352;2023-05-11T06:14:35;95214.78;;;8.97;71.31
41062;BME280;26812;42.662;23.352;2023-05-11T06:17:00;95208.31;;;8.98;72.12
41062;BME280;26812;42.662;23.352;2023-05-11T06:19:26;95196.16;;;8.87;72.51
41062;BME280;26812;42.662;23.352;2023-05-11T06:21:51;95224.34;;;9.03;73.05
41062;BME280;26812;42.662;23.352;2023-05-11T06:24:17;95213.59;;;9.03;72.90
41062;BME280;26812;42.662;23.352;2023-05-11T06:26:42;95201.75;;;9.05;71.88
41062;BME280;26812;42.662;23.352;2023-05-11T06:29:08;95223.31;;;9.54;70.99
41062;BME280;26812;42.662;23.352;2023-05-11T06:31:33;95236.66;;;9.46;71.07
41062;BME280;26812;42.662;23.352;2023-05-11T06:33:58;95223.88;;;8.88;72.69
41062;BME280;26812;42.662;23.352;2023-05-11T06:36:24;95243.97;;;9.04;72.41
41062;BME280;26812;42.662;23.352;2023-05-11T06:38:49;95251.13;;;9.36;72.18
41062;BME280;26812;42.662;23.352;2023-05-11T06:41:15;95210.19;;;9.12;71.59
41062;BME280;26812;42.662;23.352;2023-05-11T06:43:40;95219.38;;;9.11;71.69
41062;BME280;26812;42.662;23.352;2023-05-11T06:46:06;95239.56;;;9.08;72.34
41062;BME280;26812;42.662;23.352;2023-05-11T06:48:32;95219.25;;;9.29;71.93
41062;BME280;26812;42.662;23.352;2023-05-11T06:50:57;95215.13;;;9.46;71.49
41062;BME280;26812;42.662;23.352;2023-05-11T06:53:23;95240.63;;;9.48;71.14
41062;BME280;26812;42.662;23.352;2023-05-11T06:55:48;95215.38;;;9.08;72.34
41062;BME280;26812;42.662;23.352;2023-05-11T06:58:13;95229.19;;;9.43;70.77
41062;BME280;26812;42.662;23.352;2023-05-11T07:00:39;95233.91;;;9.73;70.93
41062;BME280;26812;42.662;23.352;2023-05-11T07:03:05;95251.25;;;9.81;70.29
41062;BME280;26812;42.662;23.352;2023-05-11T07:05:31;95214.88;;;9.70;70.30
41062;BME280;26812;42.662;23.352;2023-05-11T07:07:56;95234.13;;;9.99;69.35
41062;BME280;26812;42.662;23.352;2023-05-11T07:10:22;95229.59;;;9.36;70.58
41062;BME280;26812;42.662;23.352;2023-05-11T07:12:48;95243.72;;;9.91;70.01
41062;BME280;26812;42.662;23.352;2023-05-11T07:15:13;95243.56;;;10.10;68.55
41062;BME280;26812;42.662;23.352;2023-05-11T07:17:38;95212.69;;;9.72;69.17
41062;BME280;26812;42.662;23.352;2023-05-11T07:20:04;95225.81;;;9.87;68.98
41062;BME280;26812;42.662;23.352;2023-05-11T07:22:30;95239.31;;;9.95;68.73
41062;BME280;26812;42.662;23.352;2023-05-11T07:24:55;95228.69;;;9.54;69.97
41062;BME280;26812;42.662;23.352;2023-05-11T07:27:21;95239.88;;;9.84;68.33
41062;BME280;26812;42.662;23.352;2023-05-11T07:29:46;95233.28;;;9.90;68.78
41062;BME280;26812;42.662;23.352;2023-05-11T07:32:11;95238.41;;;10.00;67.41
41062;BME280;26812;42.662;23.352;2023-05-11T07:34:37;95227.28;;;10.60;66.02
41062;BME280;26812;42.662;23.352;2023-05-11T07:37:03;95241.34;;;10.79;64.78
41062;BME280;26812;42.662;23.352;2023-05-11T07:39:28;95242.69;;;10.99;64.67
41062;BME280;26812;42.662;23.352;2023-05-11T07:41:54;95236.69;;;11.02;64.24
41062;BME280;26812;42.662;23.352;2023-05-11T07:44:19;95225.22;;;10.97;63.40
41062;BME280;26812;42.662;23.352;2023-05-11T07:46:45;95208.19;;;11.27;62.66
41062;BME280;26812;42.662;23.352;2023-05-11T07:49:10;95233.72;;;10.73;64.35
41062;BME280;26812;42.662;23.352;2023-05-11T07:51:36;95232.81;;;10.86;64.26
41062;BME280;26812;42.662;23.352;2023-05-11T07:54:01;95246.03;;;11.62;62.41
41062;BME280;26812;42.662;23.352;2023-05-11T07:56:27;95243.75;;;12.21;60.93
41062;BME280;26812;42.662;23.352;2023-05-11T07:58:52;95200.00;;;11.41;60.70
41062;BME280;26812;42.662;23.352;2023-05-11T08:01:17;95231.09;;;11.38;60.56
41062;BME280;26812;42.662;23.352;2023-05-11T08:03:43;95206.66;;;11.43;59.97
41062;BME280;26812;42.662;23.352;2023-05-11T08:06:08;95236.19;;;11.40;60.41
41062;BME280;26812;42.662;23.352;2023-05-11T08:08:34;95226.88;;;11.06;61.42
41062;BME280;26812;42.662;23.352;2023-05-11T08:11:00;95209.19;;;11.40;60.43
41062;BME280;26812;42.662;23.352;2023-05-11T08:13:39;95227.38;;;11.91;59.86
41062;BME280;26812;42.662;23.352;2023-05-11T08:16:12;95238.00;;;12.48;56.77
41062;BME280;26812;42.662;23.352;2023-05-11T08:18:37;95246.00;;;12.01;57.80
41062;BME280;26812;42.662;23.352;2023-05-11T08:21:03;95254.50;;;11.69;58.50
41062;BME280;26812;42.662;23.352;2023-05-11T08:23:28;95216.91;;;11.98;57.79
41062;BME280;26812;42.662;23.352;2023-05-11T08:25:54;95251.34;;;12.53;56.72
41062;BME280;26812;42.662;23.352;2023-05-11T08:28:21;95215.44;;;12.44;56.16
41062;BME280;26812;42.662;23.352;2023-05-11T08:30:53;95237.78;;;12.79;55.12
41062;BME280;26812;42.662;23.352;2023-05-11T08:33:18;95217.69;;;12.97;53.91
41062;BME280;26812;42.662;23.352;2023-05-11T08:35:44;95231.25;;;12.89;54.18
41062;BME280;26812;42.662;23.352;2023-05-11T08:38:10;95253.47;;;13.50;54.00
41062;BME280;26812;42.662;23.352;2023-05-11T08:40:35;95236.28;;;14.17;51.88
41062;BME280;26812;42.662;23.352;2023-05-11T08:43:03;95247.38;;;12.42;54.35
41062;BME280;26812;42.662;23.352;2023-05-11T08:45:30;95249.75;;;12.52;55.63
41062;BME280;26812;42.662;23.352;2023-05-11T08:47:57;95238.78;;;12.57;54.74
41062;BME280;26812;42.662;23.352;2023-05-11T08:50:23;95207.22;;;11.97;56.15
41062;BME280;26812;42.662;23.352;2023-05-11T08:52:52;95217.66;;;12.42;55.65
41062;BME280;26812;42.662;23.352;2023-05-11T08:55:18;95240.00;;;12.86;55.08
41062;BME280;26812;42.662;23.352;2023-05-11T08:57:43;95225.00;;;12.07;56.77
41062;BME280;26812;42.662;23.352;2023-05-11T09:00:11;95235.19;;;12.01;57.18
41062;BME280;26812;42.662;23.352;2023-05-11T09:02:37;95224.66;;;11.74;58.22
41062;BME280;26812;42.662;23.352;2023-05-11T09:05:03;95235.13;;;11.75;58.52
41062;BME280;26812;42.662;23.352;2023-05-11T09:07:30;95237.56;;;11.94;58.51
41062;BME280;26812;42.662;23.352;2023-05-11T09:09:55;95233.09;;;12.16;58.31
41062;BME280;26812;42.662;23.352;2023-05-11T09:12:21;95213.25;;;12.11;58.10
41062;BME280;26812;42.662;23.352;2023-05-11T09:14:50;95231.66;;;11.92;59.65
41062;BME280;26812;42.662;23.352;2023-05-11T09:17:17;95223.25;;;11.94;59.71
41062;BME280;26812;42.662;23.352;2023-05-11T09:20:03;95224.69;;;12.26;59.47
41062;BME280;26812;42.662;23.352;2023-05-11T09:22:41;95237.19;;;12.65;58.65
41062;BME280;26812;42.662;23.352;2023-05-11T09:25:09;95237.50;;;12.55;58.65
41062;BME280;26812;42.662;23.352;2023-05-11T09:27:40;95213.09;;;11.91;59.01
41062;BME280;26812;42.662;23.352;2023-05-11T09:30:11;95218.63;;;11.68;60.55
41062;BME280;26812;42.662;23.352;2023-05-11T09:40:51;95241.16;;;11.64;61.14
41062;BME280;26812;42.662;23.352;2023-05-11T09:43:19;95232.22;;;11.46;62.00
41062;BME280;26812;42.662;23.352;2023-05-11T09:45:49;95233.66;;;11.61;61.58
41062;BME280;26812;42.662;23.352;2023-05-11T09:50:42;95206.84;;;10.99;63.44
41062;BME280;26812;42.662;23.352;2023-05-11T09:53:08;95202.78;;;11.10;63.36
41062;BME280;26812;42.662;23.352;2023-05-11T09:55:33;95206.38;;;11.62;62.29
41062;BME280;26812;42.662;23.352;2023-05-11T09:57:59;95200.72;;;11.15;62.73
41062;BME280;26812;42.662;23.352;2023-05-11T10:00:31;95217.09;;;11.28;63.33
41062;BME280;26812;42.662;23.352;2023-05-11T10:03:22;95165.78;;;11.02;62.17
41062;BME280;26812;42.662;23.352;2023-05-11T10:05:59;95173.81;;;11.41;61.78
41062;BME280;26812;42.662;23.352;2023-05-11T10:08:29;95212.94;;;11.87;61.29
41062;BME280;26812;42.662;23.352;2023-05-11T10:10:55;95198.97;;;11.85;61.34
41062;BME280;26812;42.662;23.352;2023-05-11T10:13:22;95191.63;;;11.68;60.81
41062;BME280;26812;42.662;23.352;2023-05-11T10:15:50;95203.50;;;12.54;60.22
41062;BME280;26812;42.662;23.352;2023-05-11T10:18:16;95195.84;;;12.64;59.42
41062;BME280;26812;42.662;23.352;2023-05-11T10:20:42;95195.66;;;12.69;58.33
41062;BME280;26812;42.662;23.352;2023-05-11T10:23:09;95197.38;;;12.01;61.06
41062;BME280;26812;42.662;23.352;2023-05-11T10:25:35;95181.56;;;12.47;59.43
41062;BME280;26812;42.662;23.352;2023-05-11T10:28:01;95194.81;;;12.31;59.34
41062;BME280;26812;42.662;23.352;2023-05-11T10:30:28;95176.47;;;12.54;57.84
41062;BME280;26812;42.662;23.352;2023-05-11T10:32:54;95197.19;;;12.24;60.06
41062;BME280;26812;42.662;23.352;2023-05-11T10:35:21;95179.56;;;12.18;59.09
41062;BME280;26812;42.662;23.352;2023-05-11T10:37:47;95161.41;;;12.44;58.62
41062;BME280;26812;42.662;23.352;2023-05-11T10:40:13;95189.56;;;12.90;57.28
41062;BME280;26812;42.662;23.352;2023-05-11T10:53:57;95167.63;;;12.83;57.08
41062;BME280;26812;42.662;23.352;2023-05-11T11:02:34;95165.59;;;11.72;59.39
41062;BME280;26812;42.662;23.352;2023-05-11T11:05:00;95156.06;;;11.75;60.35
41062;BME280;26812;42.662;23.352;2023-05-11T11:07:30;95158.78;;;12.01;59.06
41062;BME280;26812;42.662;23.352;2023-05-11T11:10:00;95145.75;;;11.77;58.53
41062;BME280;26812;42.662;23.352;2023-05-11T11:12:30;95142.53;;;11.23;61.11
41062;BME280;26812;42.662;23.352;2023-05-11T11:15:14;95142.25;;;11.42;61.25
41062;BME280;26812;42.662;23.352;2023-05-11T11:17:42;95057.16;;;11.62;59.63
41062;BME280;26812;42.662;23.352;2023-05-11T11:26:17;95151.38;;;13.29;55.21
41062;BME280;26812;42.662;23.352;2023-05-11T11:29:11;95169.25;;;13.43;56.13
41062;BME280;26812;42.662;23.352;2023-05-11T11:31:42;95136.06;;;13.75;55.05
41062;BME280;26812;42.662;23.352;2023-05-11T11:37:01;95165.06;;;13.16;56.64
41062;BME280;26812;42.662;23.352;2023-05-11T11:39:49;95129.38;;;13.93;53.75
41062;BME280;26812;42.662;23.352;2023-05-11T11:45:37;95068.13;;;11.65;57.79
41062;BME280;26812;42.662;23.352;2023-05-11T11:48:10;95145.56;;;12.17;59.40
41062;BME280;26812;42.662;23.352;2023-05-11T11:50:44;95101.41;;;12.12;58.43
41062;BME280;26812;42.662;23.352;2023-05-11T12:01:17;95158.28;;;13.10;57.64
41062;BME280;26812;42.662;23.352;2023-05-11T12:04:08;95123.16;;;12.71;57.76
41062;BME280;26812;42.662;23.352;2023-05-11T12:06:40;95145.78;;;11.94;60.36
41062;BME280;26812;42.662;23.352;2023-05-11T12:09:17;95086.53;;;11.46;60.39
41062;BME280;26812;42.662;23.352;2023-05-11T12:11:45;95157.78;;;12.23;59.29
41062;BME280;26812;42.662;23.352;2023-05-11T12:14:12;95155.72;;;11.59;60.75
41062;BME280;26812;42.662;23.352;2023-05-11T12:16:37;95140.97;;;11.57;61.07
41062;BME280;26812;42.662;23.352;2023-05-11T12:19:03;95144.78;;;11.56;61.87
41062;BME280;26812;42.662;23.352;2023-05-11T12:21:30;95146.81;;;12.36;60.08
41062;BME280;26812;42.662;23.352;2023-05-11T12:24:03;95140.25;;;12.46;59.39
41062;BME280;26812;42.662;23.352;2023-05-11T12:26:30;95102.22;;;12.51;58.71
41062;BME280;26812;42.662;23.352;2023-05-11T12:29:09;95141.00;;;12.64;58.23
41062;BME280;26812;42.662;23.352;2023-05-11T12:31:36;95146.34;;;12.72;57.93
41062;BME280;26812;42.662;23.352;2023-05-11T12:34:01;95123.13;;;12.33;58.69
41062;BME280;26812;42.662;23.352;2023-05-11T12:36:27;95121.84;;;12.39;58.18
41062;BME280;26812;42.662;23.352;2023-05-11T12:38:54;95122.22;;;12.67;58.17
41062;BME280;26812;42.662;23.352;2023-05-11T12:41:21;95122.47;;;13.42;55.40
41062;BME280;26812;42.662;23.352;2023-05-11T12:43:51;95116.50;;;12.98;56.85
41062;BME280;26812;42.662;23.352;2023-05-11T12:46:18;95116.81;;;12.12;58.74
41062;BME280;26812;42.662;23.352;2023-05-11T12:48:48;95115.22;;;12.20;59.00
41062;BME280;26812;42.662;23.352;2023-05-11T12:54:31;95094.84;;;12.31;58.53
41062;BME280;26812;42.662;23.352;2023-05-11T12:56:57;95090.97;;;11.68;59.85
41062;BME280;26812;42.662;23.352;2023-05-11T13:01:52;95107.97;;;11.42;61.11
41062;BME280;26812;42.662;23.352;2023-05-11T13:04:27;95093.03;;;11.54;60.44
41062;BME280;26812;42.662;23.352;2023-05-11T13:06:53;95106.13;;;12.24;59.00
41062;BME280;26812;42.662;23.352;2023-05-11T13:09:23;95087.06;;;12.67;57.50
41062;BME280;26812;42.662;23.352;2023-05-11T13:11:48;95089.69;;;12.55;57.53
41062;BME280;26812;42.662;23.352;2023-05-11T13:14:15;95091.13;;;12.44;57.86
41062;BME280;26812;42.662;23.352;2023-05-11T13:16:51;95091.28;;;12.48;57.89
41062;BME280;26812;42.662;23.352;2023-05-11T13:19:28;95106.78;;;12.68;57.57
41062;BME280;26812;42.662;23.352;2023-05-11T13:21:54;95094.81;;;12.78;57.81
41062;BME280;26812;42.662;23.352;2023-05-11T13:24:22;95082.84;;;12.87;56.58
41062;BME280;26812;42.662;23.352;2023-05-11T13:26:47;95077.78;;;12.86;57.46
41062;BME280;26812;42.662;23.352;2023-05-11T13:29:13;95093.88;;;12.35;58.33
41062;BME280;26812;42.662;23.352;2023-05-11T13:31:46;95084.84;;;12.23;58.59
41062;BME280;26812;42.662;23.352;2023-05-11T13:34:12;95081.53;;;12.17;58.51
41062;BME280;26812;42.662;23.352;2023-05-11T13:36:38;95088.19;;;12.20;59.20
41062;BME280;26812;42.662;23.352;2023-05-11T13:39:03;95071.13;;;12.74;57.68
41062;BME280;26812;42.662;23.352;2023-05-11T13:41:29;95093.00;;;12.90;56.75
41062;BME280;26812;42.662;23.352;2023-05-11T13:43:54;95083.78;;;12.91;57.20
41062;BME280;26812;42.662;23.352;2023-05-11T13:46:20;95067.97;;;12.72;57.79
41062;BME280;26812;42.662;23.352;2023-05-11T13:48:46;95037.81;;;12.62;57.58
41062;BME280;26812;42.662;23.352;2023-05-11T13:51:11;95073.75;;;13.21;56.20
41062;BME280;26812;42.662;23.352;2023-05-11T13:53:37;95088.94;;;13.05;57.43
41062;BME280;26812;42.662;23.352;2023-05-11T13:56:02;95070.59;;;12.52;57.73
41062;BME280;26812;42.662;23.352;2023-05-11T13:58:28;95063.19;;;12.40;59.00